Time;durP1;ratioP1;P1;durP2;ratioP2;P2;SDS_P1;SDS_P2;PMS_P1;PMS_P2;Temp;Humidity;BMP_temperature;BMP_pressure;BME280_temperature;BME280_humidity;BME280_pressure;Samples;Min_cycle;Max_cycle;Signal;HPM_P1;HPM_P2
2021/11/14 00:02:00;;;;;;;11.90;5.70;;;11.40;99.90;;;;;;4995797;28;20232;-84
2021/11/14 00:04:26;;;;;;;16.40;8.47;;;11.40;99.90;;;;;;4994234;28;20220;-84
2021/11/14 00:06:52;;;;;;;11.07;6.73;;;11.40;99.90;;;;;;4987779;28;20282;-84
2021/11/14 00:09:19;;;;;;;13.63;6.70;;;11.30;99.90;;;;;;4975951;28;20678;-84
2021/11/14 00:11:45;;;;;;;16.07;7.03;;;11.40;99.90;;;;;;4983701;28;20266;-84
2021/11/14 00:14:12;;;;;;;12.50;7.70;;;11.40;99.90;;;;;;4993835;28;20216;-84
2021/11/14 00:16:38;;;;;;;7.90;4.53;;;11.40;99.90;;;;;;4993058;28;20713;-84
2021/11/14 00:19:04;;;;;;;11.43;6.50;;;11.40;99.90;;;;;;4991795;28;20227;-83
2021/11/14 00:21:30;;;;;;;10.17;6.97;;;11.40;99.90;;;;;;4995119;28;20210;-83
2021/11/14 00:23:56;;;;;;;7.13;5.87;;;11.40;99.90;;;;;;4991393;28;20335;-85
2021/11/14 00:26:23;;;;;;;8.53;4.93;;;11.40;99.90;;;;;;4994965;28;20236;-83
2021/11/14 00:28:48;;;;;;;12.07;7.00;;;11.40;99.90;;;;;;4993877;28;20234;-82
2021/11/14 00:31:18;;;;;;;11.10;5.87;;;11.40;99.90;;;;;;4995346;28;20602;-83
2021/11/14 00:33:47;;;;;;;12.53;5.13;;;11.40;99.90;;;;;;4994653;28;20195;-83
2021/11/14 00:36:16;;;;;;;13.00;6.57;;;11.40;99.90;;;;;;4994685;28;20231;-83
2021/11/14 00:38:43;;;;;;;9.57;5.27;;;11.40;99.90;;;;;;4995460;28;20222;-83
2021/11/14 00:41:09;;;;;;;9.03;5.77;;;11.40;99.90;;;;;;4995402;28;20307;-84
2021/11/14 00:43:36;;;;;;;19.93;7.27;;;11.40;99.90;;;;;;4993225;28;20230;-83
2021/11/14 00:46:04;;;;;;;13.70;7.53;;;11.40;99.90;;;;;;4992101;28;20775;-83
2021/11/14 00:48:30;;;;;;;14.50;6.80;;;11.40;99.90;;;;;;4993067;28;20192;-83
2021/11/14 00:50:56;;;;;;;16.13;7.37;;;11.40;99.90;;;;;;4994151;28;20218;-82
2021/11/14 00:53:21;;;;;;;17.13;9.90;;;11.40;99.90;;;;;;4976665;28;20266;-83
2021/11/14 00:55:49;;;;;;;17.77;9.00;;;11.40;99.90;;;;;;4975600;28;20227;-83
2021/11/14 00:58:15;;;;;;;18.53;8.70;;;11.40;99.90;;;;;;4993594;28;21116;-83
2021/11/14 01:00:41;;;;;;;17.13;9.77;;;11.40;99.90;;;;;;4991675;28;20196;-83
2021/11/14 01:03:09;;;;;;;20.27;6.73;;;11.40;99.90;;;;;;4993405;28;20195;-83
2021/11/14 01:05:37;;;;;;;20.87;9.83;;;11.40;99.90;;;;;;4976990;28;20325;-84
2021/11/14 01:08:04;;;;;;;18.63;9.60;;;11.40;99.90;;;;;;4957990;28;20216;-83
2021/11/14 01:10:35;;;;;;;19.93;9.67;;;11.40;99.90;;;;;;4991017;28;20634;-83
2021/11/14 01:13:01;;;;;;;20.70;10.57;;;11.40;99.90;;;;;;4993426;28;20223;-83
2021/11/14 01:15:28;;;;;;;15.77;8.77;;;11.40;99.90;;;;;;4991942;28;20203;-83
2021/11/14 01:17:55;;;;;;;14.73;9.60;;;11.40;99.90;;;;;;4973115;28;20211;-83
2021/11/14 01:20:24;;;;;;;19.17;9.13;;;11.30;99.90;;;;;;4991605;28;20220;-84
2021/11/14 01:22:51;;;;;;;14.37;8.20;;;11.30;99.90;;;;;;4991863;28;20223;-82
2021/11/14 01:25:18;;;;;;;13.13;8.00;;;11.20;99.90;;;;;;4973938;28;20245;-83
2021/11/14 01:27:44;;;;;;;17.77;8.97;;;11.20;99.90;;;;;;4992301;28;20204;-83
2021/11/14 01:30:25;;;;;;;16.60;9.57;;;11.20;99.90;;;;;;4990887;28;20291;-83
2021/11/14 01:32:52;;;;;;;16.17;8.13;;;11.20;99.90;;;;;;4999741;28;20229;-81
2021/11/14 01:35:18;;;;;;;16.30;7.93;;;11.20;99.90;;;;;;4974531;28;20306;-82
2021/11/14 01:37:46;;;;;;;16.87;8.63;;;11.20;99.90;;;;;;4994130;28;20240;-82
2021/11/14 01:40:19;;;;;;;16.13;10.33;;;11.20;99.90;;;;;;4990487;28;20219;-82
2021/11/14 01:42:46;;;;;;;16.87;10.23;;;11.20;99.90;;;;;;4993243;28;20279;-83
2021/11/14 01:45:12;;;;;;;15.27;6.80;;;11.20;99.90;;;;;;4995610;28;20187;-83
2021/11/14 01:47:38;;;;;;;18.03;8.37;;;11.20;99.90;;;;;;4999715;28;20270;-83
2021/11/14 01:50:05;;;;;;;16.17;6.60;;;11.20;99.90;;;;;;4994349;28;20250;-84
2021/11/14 01:52:32;;;;;;;12.47;7.67;;;11.20;99.90;;;;;;4993420;28;20224;-83
2021/11/14 01:54:58;;;;;;;11.80;7.10;;;11.20;99.90;;;;;;4993201;28;20602;-83
2021/11/14 01:57:24;;;;;;;12.60;7.57;;;11.20;99.90;;;;;;4992091;28;20246;-84
2021/11/14 01:59:52;;;;;;;15.37;8.63;;;11.20;99.90;;;;;;4993697;28;20220;-83
2021/11/14 02:02:18;;;;;;;15.43;8.13;;;11.20;99.90;;;;;;4990338;28;20211;-83
2021/11/14 02:04:44;;;;;;;14.57;6.13;;;11.20;99.90;;;;;;4991463;28;20226;-83
2021/11/14 02:07:14;;;;;;;14.30;6.10;;;11.10;99.90;;;;;;4993051;28;20243;-83
2021/11/14 02:09:40;;;;;;;12.17;6.90;;;11.10;99.90;;;;;;4991718;28;20184;-84
2021/11/14 02:12:06;;;;;;;10.57;6.90;;;11.10;99.90;;;;;;4992338;28;20192;-83
2021/11/14 02:14:32;;;;;;;10.77;5.57;;;11.10;99.90;;;;;;5000216;28;20220;-83
2021/11/14 02:17:00;;;;;;;11.67;7.63;;;11.00;99.90;;;;;;4991956;28;20289;-82
2021/11/14 02:19:25;;;;;;;13.33;6.73;;;11.00;99.90;;;;;;4961180;28;20237;-83
2021/11/14 02:21:53;;;;;;;10.67;6.30;;;11.00;99.90;;;;;;4975983;28;20199;-83
2021/11/14 02:24:20;;;;;;;14.90;7.97;;;11.00;99.90;;;;;;4990827;28;20283;-83
2021/11/14 02:26:47;;;;;;;15.63;8.30;;;11.00;99.90;;;;;;4990845;28;20331;-82
2021/11/14 02:29:13;;;;;;;8.50;5.87;;;10.90;99.90;;;;;;4992512;28;20227;-83
2021/11/14 02:31:39;;;;;;;20.77;6.90;;;10.90;99.90;;;;;;4976367;28;20223;-83
2021/11/14 02:34:05;;;;;;;12.23;6.60;;;10.90;99.90;;;;;;4992089;28;20220;-83
2021/11/14 02:36:31;;;;;;;10.40;6.90;;;11.00;99.90;;;;;;4991271;28;20192;-82
2021/11/14 02:38:57;;;;;;;13.43;9.03;;;10.90;99.90;;;;;;4993798;28;20302;-83
2021/11/14 02:41:23;;;;;;;14.40;8.70;;;10.90;99.90;;;;;;4992947;28;21108;-83
2021/11/14 02:43:51;;;;;;;16.37;9.23;;;10.90;99.90;;;;;;4993270;28;20250;-82
2021/11/14 02:46:17;;;;;;;13.70;7.10;;;10.90;99.90;;;;;;4995373;28;20271;-82
2021/11/14 02:48:44;;;;;;;15.17;7.93;;;10.90;99.90;;;;;;4994953;28;20211;-82
2021/11/14 02:51:18;;;;;;;14.80;9.13;;;10.90;99.90;;;;;;4995151;28;20199;-82
2021/11/14 02:53:44;;;;;;;16.57;6.07;;;10.90;99.90;;;;;;4995283;28;20251;-82
2021/11/14 02:56:10;;;;;;;15.37;6.90;;;10.80;99.90;;;;;;4993253;28;20318;-83
2021/11/14 02:58:37;;;;;;;15.47;8.10;;;10.80;99.90;;;;;;4994760;28;20223;-82
2021/11/14 03:01:27;;;;;;;17.03;7.73;;;10.80;99.90;;;;;;4986346;28;20219;-81
2021/11/14 03:03:54;;;;;;;9.63;5.33;;;10.80;99.90;;;;;;5010628;28;20188;-82
2021/11/14 03:06:22;;;;;;;17.03;7.27;;;10.80;99.90;;;;;;4977841;28;20334;-83
2021/11/14 03:08:47;;;;;;;14.30;7.13;;;10.80;99.90;;;;;;4978819;28;20580;-83
2021/11/14 03:11:15;;;;;;;18.67;7.57;;;10.80;99.90;;;;;;4977668;28;20203;-83
2021/11/14 03:13:41;;;;;;;9.17;5.73;;;10.80;99.90;;;;;;4997177;28;20222;-82
2021/11/14 03:16:10;;;;;;;13.70;9.30;;;10.80;99.90;;;;;;4996102;28;20235;-82
2021/11/14 03:18:36;;;;;;;10.87;6.33;;;10.70;99.90;;;;;;4995926;28;20200;-83
2021/11/14 03:21:03;;;;;;;12.33;6.90;;;10.80;99.90;;;;;;4995250;28;20269;-82
2021/11/14 03:23:29;;;;;;;15.47;6.13;;;10.70;99.90;;;;;;4992464;28;20223;-82
2021/11/14 03:25:56;;;;;;;10.00;7.80;;;10.80;99.90;;;;;;4979702;28;20475;-83
2021/11/14 03:28:23;;;;;;;14.47;7.33;;;10.80;99.90;;;;;;4996274;28;20642;-84
2021/11/14 03:30:51;;;;;;;9.07;7.20;;;10.80;99.90;;;;;;4978271;28;20188;-83
2021/11/14 03:33:18;;;;;;;17.90;7.37;;;10.80;99.90;;;;;;4994880;28;20616;-83
2021/11/14 03:35:54;;;;;;;13.57;8.83;;;10.80;99.90;;;;;;4994491;28;20215;-83
2021/11/14 03:38:29;;;;;;;12.73;8.33;;;10.80;99.90;;;;;;4995188;28;20223;-83
2021/11/14 03:40:56;;;;;;;10.93;6.57;;;10.80;99.90;;;;;;4994577;28;20243;-82
2021/11/14 03:43:22;;;;;;;17.23;7.23;;;10.80;99.90;;;;;;4994961;28;20227;-83
2021/11/14 03:45:49;;;;;;;12.03;7.80;;;10.80;99.90;;;;;;4978239;28;20281;-82
2021/11/14 03:48:15;;;;;;;10.80;6.53;;;10.80;99.90;;;;;;4996095;28;20721;-82
2021/11/14 03:50:41;;;;;;;6.87;5.13;;;10.80;99.90;;;;;;4991621;28;20228;-82
2021/11/14 03:53:09;;;;;;;9.53;5.50;;;10.80;99.90;;;;;;4993736;28;20215;-82
2021/11/14 03:55:36;;;;;;;11.60;6.63;;;10.80;99.90;;;;;;4993150;28;20767;-82
2021/11/14 03:58:03;;;;;;;11.80;6.23;;;10.80;99.90;;;;;;4995525;28;20569;-83
2021/11/14 04:00:32;;;;;;;9.83;6.67;;;10.80;99.90;;;;;;4991319;28;20248;-82
2021/11/14 04:02:59;;;;;;;12.27;6.23;;;10.80;99.90;;;;;;4995223;28;20219;-83
2021/11/14 04:05:29;;;;;;;11.37;6.13;;;10.70;99.90;;;;;;4992339;28;20231;-81
2021/11/14 04:07:55;;;;;;;14.07;8.77;;;10.80;99.90;;;;;;4994529;28;20584;-81
2021/11/14 04:10:21;;;;;;;11.07;6.53;;;10.80;99.90;;;;;;4994970;28;20310;-83
2021/11/14 04:12:47;;;;;;;14.40;7.63;;;10.70;99.90;;;;;;4976133;28;20283;-82
2021/11/14 04:15:16;;;;;;;13.40;7.57;;;10.80;99.90;;;;;;4994124;28;20204;-83
2021/11/14 04:17:42;;;;;;;13.30;6.40;;;10.80;99.90;;;;;;4990492;28;20262;-83
2021/11/14 04:20:10;;;;;;;13.53;6.03;;;10.70;99.90;;;;;;4991154;28;20341;-82
2021/11/14 04:22:37;;;;;;;16.10;8.33;;;10.70;99.90;;;;;;4991137;28;20238;-82
2021/11/14 04:25:03;;;;;;;22.50;9.07;;;10.70;99.90;;;;;;4993306;28;20274;-82
2021/11/14 04:27:29;;;;;;;12.00;6.17;;;10.70;99.90;;;;;;4977644;28;20695;-82
2021/11/14 04:29:55;;;;;;;11.77;6.10;;;10.70;99.90;;;;;;4975870;28;20223;-82
2021/11/14 04:32:21;;;;;;;10.80;6.43;;;10.70;99.90;;;;;;4978446;28;20235;-82
2021/11/14 04:34:46;;;;;;;17.30;6.73;;;10.70;99.90;;;;;;4993106;28;20224;-82
2021/11/14 04:37:12;;;;;;;13.60;7.47;;;10.70;99.90;;;;;;4988122;28;21022;-82
2021/11/14 04:39:38;;;;;;;12.80;7.67;;;10.70;99.90;;;;;;4974490;28;20191;-82
2021/11/14 04:42:07;;;;;;;11.80;6.20;;;10.70;99.90;;;;;;4974103;28;20219;-82
2021/11/14 04:44:34;;;;;;;14.87;6.90;;;10.70;99.90;;;;;;4993186;28;20280;-82
2021/11/14 04:46:59;;;;;;;14.73;7.07;;;10.70;99.90;;;;;;4984133;28;20292;-83
2021/11/14 04:49:25;;;;;;;10.30;6.90;;;10.60;99.90;;;;;;4977876;28;20684;-83
2021/11/14 04:51:51;;;;;;;11.03;6.13;;;10.60;99.90;;;;;;4976392;28;20524;-81
2021/11/14 04:54:19;;;;;;;18.73;7.90;;;10.60;99.90;;;;;;4993731;28;20192;-83
2021/11/14 04:56:46;;;;;;;14.13;5.90;;;10.60;99.90;;;;;;4974540;28;20303;-84
2021/11/14 04:59:11;;;;;;;8.83;6.40;;;10.60;99.90;;;;;;4990746;28;20225;-83
2021/11/14 05:01:38;;;;;;;10.50;6.53;;;10.60;99.90;;;;;;4990460;28;21298;-83
2021/11/14 05:04:04;;;;;;;11.23;5.87;;;10.60;99.90;;;;;;4993734;28;20219;-82
2021/11/14 05:06:31;;;;;;;16.57;6.97;;;10.60;99.90;;;;;;4994641;28;20292;-81
2021/11/14 05:08:57;;;;;;;13.10;6.93;;;10.60;99.90;;;;;;4992565;28;20216;-82
2021/11/14 05:11:23;;;;;;;13.17;6.90;;;10.60;99.90;;;;;;4992538;28;20689;-82
2021/11/14 05:13:48;;;;;;;9.23;4.93;;;10.60;99.90;;;;;;4990612;28;20230;-82
2021/11/14 05:16:14;;;;;;;17.20;5.50;;;10.60;99.90;;;;;;4989861;28;20732;-82
2021/11/14 05:18:40;;;;;;;15.27;6.40;;;10.60;99.90;;;;;;4974891;28;20568;-83
2021/11/14 05:21:07;;;;;;;9.33;7.03;;;10.60;99.90;;;;;;4990447;28;20223;-82
2021/11/14 05:23:34;;;;;;;13.23;7.30;;;10.60;99.90;;;;;;4991831;28;20303;-83
2021/11/14 05:25:59;;;;;;;15.53;6.90;;;10.60;99.90;;;;;;4994019;28;20232;-81
2021/11/14 05:28:26;;;;;;;11.33;6.40;;;10.60;99.90;;;;;;4995888;28;20285;-82
2021/11/14 05:30:51;;;;;;;14.70;7.07;;;10.60;99.90;;;;;;5000651;28;20194;-82
2021/11/14 05:33:17;;;;;;;13.27;7.07;;;10.60;99.90;;;;;;4994818;28;20211;-81
2021/11/14 05:35:44;;;;;;;8.30;5.67;;;10.60;99.90;;;;;;4991527;28;20299;-82
2021/11/14 05:38:11;;;;;;;7.80;5.80;;;10.60;99.90;;;;;;4987958;28;20216;-82
2021/11/14 05:40:37;;;;;;;17.50;8.40;;;10.60;99.90;;;;;;4991879;28;20334;-82
2021/11/14 05:43:03;;;;;;;7.37;6.07;;;10.50;99.90;;;;;;4974861;28;20227;-83
2021/11/14 05:45:30;;;;;;;9.83;6.03;;;10.50;99.90;;;;;;4993143;28;20191;-82
2021/11/14 05:47:56;;;;;;;6.50;5.17;;;10.50;99.90;;;;;;4994032;28;20219;-82
2021/11/14 05:50:22;;;;;;;10.50;5.70;;;10.50;99.90;;;;;;4991375;28;21010;-82
2021/11/14 05:52:48;;;;;;;9.33;5.57;;;10.40;99.90;;;;;;4989280;28;20219;-82
2021/11/14 05:55:14;;;;;;;9.93;5.27;;;10.40;99.90;;;;;;4976147;28;20216;-82
2021/11/14 05:57:54;;;;;;;10.57;6.17;;;10.40;99.90;;;;;;4996260;28;20206;-82
2021/11/14 06:03:20;;;;;;;7.87;5.27;;;10.40;99.90;;;;;;4993433;28;20286;-82
2021/11/14 06:05:45;;;;;;;11.33;6.27;;;10.40;99.90;;;;;;4994010;28;20241;-82
2021/11/14 06:08:12;;;;;;;15.80;6.57;;;10.40;99.90;;;;;;4976469;28;20231;-83
2021/11/14 06:10:38;;;;;;;7.57;5.27;;;10.40;99.90;;;;;;4990814;28;20219;-82
2021/11/14 06:13:04;;;;;;;9.20;5.17;;;10.40;99.90;;;;;;4987006;28;20220;-82
2021/11/14 06:15:30;;;;;;;7.13;5.13;;;10.40;99.90;;;;;;4978280;28;20271;-82
2021/11/14 06:17:57;;;;;;;10.70;6.27;;;10.40;99.90;;;;;;4984169;28;20226;-82
2021/11/14 06:20:23;;;;;;;8.70;4.03;;;10.40;99.90;;;;;;4997812;28;20386;-81
2021/11/14 06:22:49;;;;;;;10.43;6.17;;;10.40;99.90;;;;;;4993191;28;20704;-82
2021/11/14 06:25:16;;;;;;;8.57;4.90;;;10.40;99.90;;;;;;4993551;28;20211;-84
2021/11/14 06:27:42;;;;;;;12.23;5.50;;;10.40;99.90;;;;;;4999427;28;20223;-83
2021/11/14 06:30:10;;;;;;;11.77;6.07;;;10.40;99.90;;;;;;4962767;28;20222;-83
2021/11/14 06:32:37;;;;;;;9.47;5.77;;;10.40;99.90;;;;;;4970595;28;20216;-83
2021/11/14 06:35:03;;;;;;;9.33;5.93;;;10.40;99.90;;;;;;4994578;28;20216;-83
2021/11/14 06:37:29;;;;;;;9.90;4.53;;;10.40;99.90;;;;;;4996656;28;20223;-84
2021/11/14 06:39:57;;;;;;;8.97;5.50;;;10.40;99.90;;;;;;4992072;28;20191;-82
2021/11/14 06:42:23;;;;;;;8.43;4.93;;;10.40;99.90;;;;;;4992579;28;20290;-82
2021/11/14 06:44:49;;;;;;;5.73;4.97;;;10.40;99.90;;;;;;4993287;28;20215;-83
2021/11/14 06:47:15;;;;;;;9.07;5.67;;;10.40;99.90;;;;;;4992148;28;20223;-83
2021/11/14 06:49:42;;;;;;;7.17;5.53;;;10.40;99.90;;;;;;4975872;28;20281;-83
2021/11/14 06:52:08;;;;;;;9.97;4.77;;;10.40;99.90;;;;;;4992853;28;20223;-83
2021/11/14 06:54:35;;;;;;;6.93;5.27;;;10.40;99.90;;;;;;4990652;28;20246;-83
2021/11/14 06:57:01;;;;;;;6.03;4.43;;;10.40;99.90;;;;;;4994128;28;20227;-83
2021/11/14 06:59:26;;;;;;;8.63;4.63;;;10.40;99.90;;;;;;4992586;28;20909;-83
2021/11/14 07:01:52;;;;;;;7.67;4.10;;;10.40;99.90;;;;;;4992898;28;20630;-83
2021/11/14 07:04:18;;;;;;;10.37;5.90;;;10.30;99.90;;;;;;4990986;28;20231;-83
2021/11/14 07:06:46;;;;;;;9.43;3.97;;;10.30;99.90;;;;;;4975700;28;20375;-83
2021/11/14 07:09:13;;;;;;;8.77;6.80;;;10.30;99.90;;;;;;4994551;28;20274;-84
2021/11/14 07:11:39;;;;;;;7.03;4.47;;;10.30;99.90;;;;;;4996012;28;20212;-85
2021/11/14 07:14:05;;;;;;;8.03;5.43;;;10.30;99.90;;;;;;4994746;28;20635;-85
2021/11/14 07:16:32;;;;;;;9.67;4.97;;;10.30;99.90;;;;;;4997770;28;20220;-84
2021/11/14 07:18:58;;;;;;;7.77;5.77;;;10.30;99.90;;;;;;4976138;28;20366;-84
2021/11/14 07:21:25;;;;;;;6.77;5.47;;;10.30;99.90;;;;;;4994035;28;20216;-83
2021/11/14 07:23:51;;;;;;;10.80;7.00;;;10.30;99.90;;;;;;4991866;28;20235;-83
2021/11/14 07:26:17;;;;;;;10.10;5.73;;;10.30;99.90;;;;;;4994638;28;20247;-83
2021/11/14 07:28:43;;;;;;;10.67;5.43;;;10.30;99.90;;;;;;4994174;28;20592;-84
2021/11/14 07:31:09;;;;;;;10.57;4.50;;;10.30;99.90;;;;;;4993443;28;20219;-84
2021/11/14 07:33:35;;;;;;;7.13;4.87;;;10.30;99.90;;;;;;4992062;28;20196;-84
2021/11/14 07:36:01;;;;;;;11.40;5.97;;;10.40;99.90;;;;;;4994796;28;20231;-83
2021/11/14 07:38:27;;;;;;;10.07;5.67;;;10.30;99.90;;;;;;4994588;28;20230;-83
2021/11/14 07:40:54;;;;;;;14.93;6.60;;;10.40;99.90;;;;;;4976655;28;20999;-84
2021/11/14 07:43:19;;;;;;;18.37;7.43;;;10.40;99.90;;;;;;4993611;28;20279;-84
2021/11/14 07:45:45;;;;;;;7.63;5.37;;;10.40;99.90;;;;;;4997639;28;20695;-82
2021/11/14 07:48:12;;;;;;;7.60;4.90;;;10.40;99.90;;;;;;4998127;28;20191;-85
2021/11/14 07:50:39;;;;;;;12.33;6.93;;;10.40;99.90;;;;;;4993386;28;20250;-84
2021/11/14 07:53:05;;;;;;;14.73;5.73;;;10.40;99.90;;;;;;4993576;28;20226;-86
2021/11/14 07:55:31;;;;;;;9.10;5.30;;;10.40;99.90;;;;;;4976815;28;20223;-87
2021/11/14 07:57:59;;;;;;;12.77;7.10;;;10.40;99.90;;;;;;4990856;28;20594;-85
2021/11/14 08:00:25;;;;;;;11.70;5.27;;;10.40;99.90;;;;;;4991665;28;20199;-85
2021/11/14 08:02:51;;;;;;;17.20;7.73;;;10.40;99.90;;;;;;4992768;28;20862;-86
2021/11/14 08:05:18;;;;;;;11.43;5.17;;;10.50;99.90;;;;;;4984798;28;20248;-85
2021/11/14 08:07:45;;;;;;;12.60;6.80;;;10.50;99.90;;;;;;4983676;28;20246;-86
2021/11/14 08:10:17;;;;;;;11.50;7.70;;;10.50;99.90;;;;;;4987652;28;21165;-86
2021/11/14 08:12:43;;;;;;;12.20;6.67;;;10.50;99.90;;;;;;5003716;28;20199;-86
2021/11/14 08:15:10;;;;;;;13.90;7.53;;;10.50;99.90;;;;;;4992346;28;20195;-86
2021/11/14 08:17:36;;;;;;;9.50;6.40;;;10.50;99.90;;;;;;4991613;28;20736;-86
2021/11/14 08:20:04;;;;;;;11.93;7.47;;;10.50;99.90;;;;;;4993364;28;20549;-86
2021/11/14 08:22:30;;;;;;;10.97;8.50;;;10.50;99.90;;;;;;4995323;28;20231;-86
2021/11/14 08:24:58;;;;;;;12.67;7.77;;;10.60;99.90;;;;;;4994625;28;20665;-87
2021/11/14 08:27:24;;;;;;;15.13;8.03;;;10.60;99.90;;;;;;4986402;28;20297;-84
2021/11/14 08:29:51;;;;;;;9.90;5.63;;;10.60;99.90;;;;;;4978371;28;20228;-87
2021/11/14 08:32:18;;;;;;;18.77;8.77;;;10.60;99.90;;;;;;4992775;28;20235;-86
2021/11/14 08:34:44;;;;;;;16.90;9.10;;;10.70;99.90;;;;;;4993717;28;20228;-85
2021/11/14 08:37:10;;;;;;;20.87;7.73;;;10.70;99.90;;;;;;4979092;28;20752;-85
2021/11/14 08:39:36;;;;;;;16.90;7.10;;;10.70;99.90;;;;;;4996433;28;20513;-86
2021/11/14 08:42:02;;;;;;;20.30;8.70;;;10.80;99.90;;;;;;4993862;28;20251;-86
2021/11/14 08:44:29;;;;;;;17.83;7.27;;;10.80;99.90;;;;;;4994153;28;20227;-85
2021/11/14 08:46:55;;;;;;;14.80;8.03;;;10.80;99.90;;;;;;4977404;28;20410;-84
2021/11/14 08:49:22;;;;;;;10.83;8.33;;;10.80;99.90;;;;;;4995703;28;20229;-86
2021/11/14 08:51:49;;;;;;;13.90;7.77;;;10.80;99.90;;;;;;4994698;28;20192;-85
2021/11/14 08:54:14;;;;;;;17.83;7.37;;;10.80;99.90;;;;;;4976920;28;20195;-86
2021/11/14 08:56:40;;;;;;;12.27;6.13;;;10.80;99.90;;;;;;4976248;28;20212;-86
2021/11/14 08:59:08;;;;;;;19.77;8.33;;;10.80;99.90;;;;;;4976500;28;20216;-86
2021/11/14 09:01:35;;;;;;;19.03;8.70;;;10.90;99.90;;;;;;4995095;28;20303;-86
2021/11/14 09:04:01;;;;;;;19.00;8.87;;;10.90;99.90;;;;;;4979635;28;20216;-85
2021/11/14 09:06:28;;;;;;;13.33;7.83;;;11.00;99.90;;;;;;4980328;28;20326;-84
2021/11/14 09:08:55;;;;;;;12.67;6.87;;;11.00;99.90;;;;;;4994571;28;20274;-86
2021/11/14 09:11:21;;;;;;;18.73;8.47;;;11.00;99.90;;;;;;4997398;28;20270;-86
2021/11/14 09:13:48;;;;;;;15.53;9.27;;;11.00;99.90;;;;;;4975926;28;20219;-87
2021/11/14 09:16:14;;;;;;;17.37;8.43;;;11.00;99.90;;;;;;4993169;28;20302;-88
2021/11/14 09:18:40;;;;;;;21.23;7.17;;;11.00;99.90;;;;;;5007055;28;20232;-87
2021/11/14 09:21:07;;;;;;;27.03;9.43;;;11.00;99.90;;;;;;4998869;28;20218;-86
2021/11/14 09:23:33;;;;;;;15.47;7.60;;;11.00;99.90;;;;;;5009490;28;20246;-86
2021/11/14 09:26:00;;;;;;;12.87;10.00;;;11.00;99.90;;;;;;5002409;28;20232;-86
2021/11/14 09:28:26;;;;;;;16.90;9.30;;;11.10;99.90;;;;;;4992791;28;20220;-86
2021/11/14 09:30:52;;;;;;;20.20;9.27;;;11.10;99.90;;;;;;4976291;28;20942;-87
2021/11/14 09:33:20;;;;;;;24.10;8.10;;;11.10;99.90;;;;;;4976914;28;20203;-82
2021/11/14 09:35:46;;;;;;;23.90;10.03;;;11.10;99.90;;;;;;4974001;28;20223;-80
2021/11/14 09:38:12;;;;;;;16.53;7.33;;;11.10;99.90;;;;;;4989665;28;20223;-81
2021/11/14 09:40:39;;;;;;;16.90;9.27;;;11.10;99.90;;;;;;4982271;28;20230;-80
2021/11/14 09:43:05;;;;;;;17.47;9.20;;;11.10;99.90;;;;;;4990458;28;20391;-81
2021/11/14 09:45:33;;;;;;;17.30;9.23;;;11.20;99.90;;;;;;4989006;28;20184;-81
2021/11/14 09:48:00;;;;;;;12.53;7.67;;;11.20;99.90;;;;;;4990500;28;20347;-81
2021/11/14 09:50:27;;;;;;;13.17;6.47;;;11.10;99.90;;;;;;4990395;28;20227;-83
2021/11/14 09:52:54;;;;;;;15.90;8.70;;;11.10;99.90;;;;;;4987880;28;20211;-82
2021/11/14 09:55:20;;;;;;;15.33;7.47;;;11.10;99.90;;;;;;4983441;28;20227;-81
2021/11/14 09:57:47;;;;;;;11.23;8.17;;;11.10;99.90;;;;;;4988411;28;20218;-82
2021/11/14 10:00:14;;;;;;;19.03;8.67;;;11.20;99.90;;;;;;4988886;28;20315;-81
2021/11/14 10:02:40;;;;;;;15.93;8.70;;;11.10;99.90;;;;;;4990034;28;20233;-80
2021/11/14 10:05:08;;;;;;;16.13;9.60;;;11.10;99.90;;;;;;4970645;28;20239;-81
2021/11/14 10:07:34;;;;;;;14.57;9.17;;;11.20;99.90;;;;;;4986788;28;20322;-83
2021/11/14 10:10:00;;;;;;;15.73;9.60;;;11.40;99.90;;;;;;4985367;28;20240;-81
2021/11/14 10:12:36;;;;;;;28.10;10.80;;;11.30;99.90;;;;;;4986018;28;20199;-82
2021/11/14 10:15:10;;;;;;;16.40;10.33;;;11.20;99.90;;;;;;4990286;28;20210;-82
2021/11/14 10:17:37;;;;;;;15.13;7.87;;;11.20;99.90;;;;;;4994127;28;20223;-83
2021/11/14 10:20:06;;;;;;;16.60;8.70;;;11.30;99.90;;;;;;4997306;28;20216;-82
2021/11/14 10:22:33;;;;;;;21.73;8.27;;;11.30;99.90;;;;;;4987499;28;20211;-81
2021/11/14 10:24:59;;;;;;;18.60;8.47;;;11.30;99.90;;;;;;4989055;28;20228;-81
2021/11/14 10:27:27;;;;;;;16.13;7.67;;;11.10;99.90;;;;;;4989415;28;20231;-80
2021/11/14 10:29:54;;;;;;;19.83;10.27;;;11.10;99.90;;;;;;4986926;28;20220;-81
2021/11/14 10:32:21;;;;;;;13.23;9.97;;;11.10;99.90;;;;;;4989474;28;20227;-81
2021/11/14 10:34:48;;;;;;;19.57;8.20;;;11.20;99.90;;;;;;4990620;28;20528;-80
2021/11/14 10:37:14;;;;;;;16.50;8.37;;;11.20;99.90;;;;;;4986971;28;20235;-80
2021/11/14 10:39:41;;;;;;;25.20;9.57;;;11.20;99.90;;;;;;4988479;28;20203;-79
2021/11/14 10:42:14;;;;;;;14.37;9.33;;;11.20;99.90;;;;;;4988629;28;20199;-80
2021/11/14 10:44:53;;;;;;;15.47;8.27;;;11.10;99.90;;;;;;4989636;28;20335;-81
2021/11/14 10:47:24;;;;;;;18.87;9.27;;;11.20;99.90;;;;;;4997199;28;20251;-82
2021/11/14 10:50:05;;;;;;;17.90;8.10;;;11.20;99.90;;;;;;4987714;28;20285;-80
2021/11/14 10:52:33;;;;;;;13.33;8.43;;;11.20;99.90;;;;;;5002341;28;20234;-82
2021/11/14 10:55:03;;;;;;;12.20;7.30;;;11.20;99.90;;;;;;4971163;28;20231;-82
2021/11/14 10:57:31;;;;;;;7.60;6.50;;;11.20;99.90;;;;;;4990941;28;20223;-82
2021/11/14 10:59:58;;;;;;;16.43;6.53;;;11.20;99.90;;;;;;4987727;28;20219;-83
2021/11/14 11:02:25;;;;;;;14.83;8.20;;;11.20;99.90;;;;;;4989689;28;20223;-82
2021/11/14 11:04:53;;;;;;;12.30;8.97;;;11.20;99.90;;;;;;5000903;28;20226;-83
2021/11/14 11:07:19;;;;;;;14.23;6.90;;;11.20;99.90;;;;;;4993346;28;20243;-82
2021/11/14 11:09:45;;;;;;;18.00;9.30;;;11.10;99.90;;;;;;4988478;28;20200;-83
2021/11/14 11:12:33;;;;;;;12.43;6.97;;;11.10;99.90;;;;;;4994060;28;20747;-82
2021/11/14 11:15:00;;;;;;;10.00;6.23;;;11.00;99.90;;;;;;4991712;28;20314;-83
2021/11/14 11:17:28;;;;;;;18.20;7.67;;;11.00;99.90;;;;;;4995284;28;20215;-83
2021/11/14 11:20:08;;;;;;;13.73;7.50;;;11.00;99.90;;;;;;4990936;28;20253;-81
2021/11/14 11:22:45;;;;;;;11.10;5.47;;;11.00;99.90;;;;;;4990865;28;20231;-83
2021/11/14 11:25:12;;;;;;;11.03;5.10;;;11.00;99.90;;;;;;4994526;28;20281;-85
2021/11/14 11:27:38;;;;;;;17.17;7.57;;;11.00;99.90;;;;;;4962790;28;20262;-86
2021/11/14 11:30:04;;;;;;;10.27;6.93;;;11.10;99.90;;;;;;4978195;28;20771;-83
2021/11/14 11:32:30;;;;;;;12.80;6.03;;;11.10;99.90;;;;;;4993111;28;20223;-81
2021/11/14 11:34:57;;;;;;;14.13;6.90;;;11.10;99.90;;;;;;4994436;28;20989;-85
2021/11/14 11:37:23;;;;;;;12.87;6.90;;;11.20;99.90;;;;;;4994455;28;20570;-84
2021/11/14 11:39:49;;;;;;;17.83;7.60;;;11.20;99.90;;;;;;4985057;28;20197;-83
2021/11/14 11:42:15;;;;;;;15.97;6.47;;;11.20;99.90;;;;;;4970448;28;20199;-81
2021/11/14 11:44:41;;;;;;;11.77;7.37;;;11.20;99.90;;;;;;5009649;28;20215;-82
2021/11/14 11:47:12;;;;;;;20.43;6.93;;;11.20;99.90;;;;;;4993582;28;20631;-83
2021/11/14 11:49:42;;;;;;;15.97;7.80;;;11.20;99.90;;;;;;4993059;28;20327;-82
2021/11/14 11:52:17;;;;;;;14.87;7.43;;;11.20;99.90;;;;;;4991890;28;20230;-83
2021/11/14 11:54:45;;;;;;;13.17;7.70;;;11.10;99.90;;;;;;4994966;28;21216;-82
2021/11/14 11:57:14;;;;;;;10.03;6.27;;;11.10;99.90;;;;;;4993234;28;20212;-83
2021/11/14 11:59:49;;;;;;;11.63;6.43;;;11.10;99.90;;;;;;4994760;28;20253;-83
2021/11/14 12:02:26;;;;;;;13.20;6.77;;;11.10;99.90;;;;;;4989960;28;20750;-82
2021/11/14 12:04:54;;;;;;;9.73;6.43;;;11.00;99.90;;;;;;5001756;28;20334;-83
2021/11/14 12:07:25;;;;;;;15.33;7.47;;;11.00;99.90;;;;;;4991197;28;20244;-83
2021/11/14 12:09:53;;;;;;;15.87;7.30;;;11.00;99.90;;;;;;4996597;28;20187;-82
2021/11/14 12:12:23;;;;;;;11.97;6.47;;;11.10;99.90;;;;;;4986484;28;20196;-82
2021/11/14 12:15:23;;;;;;;12.03;7.17;;;11.10;99.90;;;;;;4988244;28;20303;-83
2021/11/14 12:17:56;;;;;;;12.77;5.73;;;11.10;99.90;;;;;;5006426;28;20219;-84
2021/11/14 12:20:26;;;;;;;13.43;5.73;;;11.10;99.90;;;;;;4993843;28;20220;-83
2021/11/14 12:22:54;;;;;;;9.73;5.83;;;11.10;99.90;;;;;;4992751;28;20231;-84
2021/11/14 12:25:40;;;;;;;13.50;7.10;;;11.10;99.90;;;;;;4992904;28;20230;-83
2021/11/14 12:28:06;;;;;;;11.73;5.87;;;11.10;99.90;;;;;;4992464;28;20234;-82
2021/11/14 12:30:39;;;;;;;9.90;6.10;;;11.20;99.90;;;;;;4992981;28;20196;-85
2021/11/14 12:33:07;;;;;;;9.97;6.13;;;11.20;99.90;;;;;;4991297;28;20217;-85
2021/11/14 12:35:43;;;;;;;8.40;5.93;;;11.10;99.90;;;;;;4992796;28;20233;-81
2021/11/14 12:38:12;;;;;;;10.13;4.77;;;11.10;99.90;;;;;;4983537;28;20512;-84
2021/11/14 12:40:45;;;;;;;8.03;5.10;;;11.20;99.90;;;;;;4975864;28;20311;-82
2021/11/14 12:43:17;;;;;;;10.53;5.37;;;11.10;99.90;;;;;;4990841;28;20761;-83